Terminal Aerodrome Forecast
Issued by NWS Cleveland, OH

Home | Current Version | Previous Version | Text Only | Print | Product List | Glossary On
Versions: 1 2 3 4 5 6 7 8 9 10 11 12 13 14 15 16 17
724
FTUS41 KCLE 290541
TAFTOL
TAF
KTOL 290541Z 2906/3006 09005KT P6SM VCSH OVC015
      TEMPO 2907/2911 5SM -SHRA BR OVC010
     FM291100 04005KT P6SM OVC008
     FM291600 05010KT 6SM -SHRA OVC012
     FM292200 06012KT P6SM OVC030=

USA.gov is the U.S. government's official web portal to all federal, state and local government web resources and services.